Terminal Aerodrome Forecast
Issued by NWS Wilmington, NC

Home | Current Version | Previous Version | Text Only | Print | Product List | Glossary On
Versions: 1 2 3 4 5 6 7 8 9 10 11 12 13 14 15 16
000
FTUS42 KILM 052332 CCA
TAFLBT
TAF COR
KLBT 052332Z 0600/0624 19011G18KT P6SM VCSH FEW025 SCT030 SCT120
      TEMPO 0600/0604 6SM -RA BKN030
     FM061300 21009KT P6SM VCSH SCT025 SCT120
     FM061800 19009KT P6SM VCTS SCT025 SCT050CB BKN120=

USA.gov is the U.S. government's official web portal to all federal, state and local government web resources and services.